KMJX

Ocean County Airport

Toms River, New Jersey, USA
METAR KMJX 181256Z AUTO 36003KT 3SM UP BR OVC002 M01/M01 A3011 RMK AO2 SLP202 P0000 T10061006 FZRANO
Observed Flight Rules
Jan-18 @ 12:56 UTC (51 minutes ago) Instrument Flight Rules
Wind Visibility Clouds Conditions
360° at 3 knots 3 miles
  • Overcast at 200' AGL
  • Mist
  • Unknown precipitation
Temperatures Readings Precipitation
Current -1°C / 30°F
Dewpoint -1°C / 30°F
Humidity 100%
Altimeter 30.11" Hg
Pressure 1020.2 hPa
Elevation 25
Current Rain 0.01
METAR KMJX 181256Z AUTO 36003KT 3SM UP BR OVC002 M01/M01 A3011 RMK AO2 SLP202 P0000 T10061006 FZRANO
Observed Flight Rules
Jan-18 @ 12:56 UTC
(51 minutes ago)
LIFR
Wind Visibility
360° at 3 knots 3 miles
Clouds
  • Overcast at 200' AGL
Conditions
  • Mist
  • Unknown precipitation
Temperature Dewpoint
-1°C / 30°F -1°C / 30°F
Humidity Altimeter Pressure
100% 30.11" Hg 1020.2 hPa
Current Rain
0.01